createdAt,value
2018-06-08T00:00:59.105Z,10.17
2018-06-08T00:03:27.612Z,12.07
2018-06-08T00:05:56.171Z,12.07
2018-06-08T00:08:24.659Z,15.90
2018-06-08T00:10:53.206Z,11.23
2018-06-08T00:13:22.169Z,14.53
2018-06-08T00:15:50.710Z,13.53
2018-06-08T00:18:19.309Z,10.93
2018-06-08T00:20:47.790Z,11.23
2018-06-08T00:23:16.618Z,10.47
2018-06-08T00:25:45.588Z,12.87
2018-06-08T00:28:14.274Z,12.03
2018-06-08T00:30:42.746Z,11.80
2018-06-08T00:33:11.288Z,11.33
2018-06-08T00:35:39.760Z,14.20
2018-06-08T00:38:08.283Z,11.63
2018-06-08T00:40:36.770Z,16.33
2018-06-08T00:43:05.394Z,12.60
2018-06-08T00:45:33.923Z,11.77
2018-06-08T00:48:02.836Z,15.43
2018-06-08T00:50:31.390Z,13.93
2018-06-08T00:53:00.035Z,14.53
2018-06-08T00:55:28.969Z,11.83
2018-06-08T00:57:57.455Z,12.77
2018-06-08T01:00:26.290Z,14.33
2018-06-08T01:02:54.856Z,14.63
2018-06-08T01:05:23.453Z,16.27
2018-06-08T01:07:52.353Z,12.83
2018-06-08T01:10:21.218Z,14.97
2018-06-08T01:12:49.826Z,14.20
2018-06-08T01:15:18.513Z,11.93
2018-06-08T01:17:47.177Z,17.90
2018-06-08T01:20:16.188Z,16.33
2018-06-08T01:22:44.790Z,17.60
2018-06-08T01:25:13.350Z,16.50
2018-06-08T01:27:41.867Z,14.50
2018-06-08T01:30:10.495Z,13.73
2018-06-08T01:32:39.139Z,15.10
2018-06-08T01:35:07.691Z,18.27
2018-06-08T01:37:36.195Z,14.93
2018-06-08T01:40:04.958Z,15.40
2018-06-08T01:42:34.143Z,14.57
2018-06-08T01:45:02.722Z,14.37
2018-06-08T01:47:31.570Z,14.37
2018-06-08T01:50:00.355Z,14.10
2018-06-08T01:52:29.130Z,16.50
2018-06-08T01:54:57.700Z,16.47
2018-06-08T01:57:26.541Z,14.47
2018-06-08T01:59:55.249Z,13.40
2018-06-08T02:02:23.763Z,14.20
2018-06-08T02:04:52.699Z,17.23
2018-06-08T02:07:21.438Z,15.67
2018-06-08T02:09:50.175Z,13.70
2018-06-08T02:12:18.616Z,15.53
2018-06-08T02:14:47.165Z,20.57
2018-06-08T02:17:15.956Z,23.40
2018-06-08T02:19:44.512Z,16.93
2018-06-08T02:22:13.262Z,17.27
2018-06-08T02:24:41.803Z,16.93
2018-06-08T02:27:10.496Z,16.63
2018-06-08T02:29:39.208Z,21.03
2018-06-08T02:32:07.822Z,16.10
2018-06-08T02:34:36.338Z,17.10
2018-06-08T02:37:04.854Z,15.20
2018-06-08T02:39:33.590Z,19.07
2018-06-08T02:42:02.158Z,15.33
2018-06-08T02:44:30.681Z,17.73
2018-06-08T02:46:59.235Z,17.47
2018-06-08T02:49:27.932Z,16.70
2018-06-08T02:51:56.851Z,16.93
2018-06-08T02:54:25.421Z,18.43
2018-06-08T02:56:54.001Z,17.83
2018-06-08T02:59:22.563Z,18.90
2018-06-08T03:01:51.225Z,17.87
2018-06-08T03:04:19.918Z,18.17
2018-06-08T03:06:48.733Z,17.67
2018-06-08T03:09:18.703Z,21.60
2018-06-08T03:11:47.300Z,19.40
2018-06-08T03:14:15.814Z,18.53
2018-06-08T03:16:44.419Z,18.60
2018-06-08T03:19:13.390Z,15.63
2018-06-08T03:21:41.943Z,19.20
2018-06-08T03:24:10.503Z,17.57
2018-06-08T03:26:39.288Z,18.67
2018-06-08T03:29:08.150Z,15.93
2018-06-08T03:31:36.683Z,15.57
2018-06-08T03:34:05.569Z,15.07
2018-06-08T03:36:34.104Z,16.40
2018-06-08T03:39:02.640Z,19.40
2018-06-08T03:41:31.283Z,14.87
2018-06-08T03:44:00.120Z,20.10
2018-06-08T03:46:28.913Z,17.47
2018-06-08T03:48:57.445Z,13.40
2018-06-08T03:51:26.057Z,15.73
2018-06-08T03:53:54.704Z,15.83
2018-06-08T03:56:23.205Z,14.30
2018-06-08T03:58:51.774Z,14.73
2018-06-08T04:01:20.537Z,16.67
2018-06-08T04:03:49.105Z,10.93
2018-06-08T04:06:17.823Z,14.07
2018-06-08T04:08:46.562Z,14.57
2018-06-08T04:11:15.162Z,10.67
2018-06-08T04:13:43.860Z,11.00
2018-06-08T04:16:12.323Z,17.90
2018-06-08T04:18:41.283Z,15.37
2018-06-08T04:21:09.898Z,12.33
2018-06-08T04:23:38.658Z,12.97
2018-06-08T04:26:07.566Z,14.63
2018-06-08T04:28:36.269Z,11.83
2018-06-08T04:31:04.964Z,11.03
2018-06-08T04:33:33.590Z,12.77
2018-06-08T04:36:02.108Z,10.80
2018-06-08T04:38:30.595Z,15.73
2018-06-08T04:40:59.236Z,11.43
2018-06-08T04:43:28.125Z,12.87
2018-06-08T04:45:57.090Z,15.23
2018-06-08T04:48:25.546Z,11.60
2018-06-08T04:50:54.048Z,9.93
2018-06-08T04:53:22.649Z,12.60
2018-06-08T04:55:51.140Z,15.10
2018-06-08T04:58:19.705Z,15.30
2018-06-08T05:00:48.193Z,9.60
2018-06-08T05:03:16.736Z,12.53
2018-06-08T05:05:45.407Z,11.07
2018-06-08T05:08:13.940Z,12.67
2018-06-08T05:10:43.157Z,10.37
2018-06-08T05:13:11.754Z,9.53
2018-06-08T05:15:40.341Z,15.30
2018-06-08T05:18:08.856Z,11.00
2018-06-08T05:20:37.453Z,10.77
2018-06-08T05:23:06.143Z,12.10
2018-06-08T05:25:34.935Z,13.17
2018-06-08T05:28:03.618Z,9.43
2018-06-08T05:30:32.165Z,12.67
2018-06-08T05:33:00.757Z,11.00
2018-06-08T05:35:29.262Z,9.77
2018-06-08T05:38:04.324Z,17.97
2018-06-08T05:40:32.958Z,16.70
2018-06-08T05:43:01.511Z,13.23
2018-06-08T05:45:30.157Z,12.47
2018-06-08T05:47:58.747Z,14.63
2018-06-08T05:50:27.399Z,8.90
2018-06-08T05:52:56.012Z,9.30
2018-06-08T05:55:24.607Z,17.10
2018-06-08T05:57:53.246Z,14.90
2018-06-08T06:00:21.795Z,10.47
2018-06-08T06:02:50.356Z,14.30
2018-06-08T06:05:19.037Z,13.47
2018-06-08T06:07:47.716Z,12.77
2018-06-08T06:10:16.320Z,13.27
2018-06-08T06:12:44.991Z,17.20
2018-06-08T06:15:13.587Z,10.40
2018-06-08T06:17:42.225Z,11.83
2018-06-08T06:20:10.816Z,13.57
2018-06-08T06:22:39.500Z,14.07
2018-06-08T06:25:08.111Z,16.53
2018-06-08T06:27:36.730Z,12.57
2018-06-08T06:30:05.888Z,14.07
2018-06-08T06:32:34.427Z,14.87
2018-06-08T06:35:02.997Z,15.87
2018-06-08T06:37:31.856Z,18.10
2018-06-08T06:40:00.436Z,15.08
2018-06-08T06:42:29.040Z,15.83
2018-06-08T06:44:57.647Z,12.93
2018-06-08T06:47:26.174Z,9.90
2018-06-08T06:49:54.928Z,16.10
2018-06-08T06:52:23.558Z,11.88
2018-06-08T06:54:52.090Z,10.82
2018-06-08T06:57:20.607Z,9.43
2018-06-08T06:59:49.112Z,9.75
2018-06-08T07:02:17.702Z,11.38
2018-06-08T07:04:46.182Z,14.87
2018-06-08T07:07:14.696Z,13.45
2018-06-08T07:09:43.262Z,12.53
2018-06-08T07:12:11.770Z,14.73
2018-06-08T07:14:40.226Z,15.72
2018-06-08T07:17:09.247Z,13.43
2018-06-08T07:19:37.777Z,14.23
2018-06-08T07:22:06.386Z,11.30
2018-06-08T07:24:34.981Z,14.25
2018-06-08T07:27:03.546Z,14.18
2018-06-08T07:29:32.035Z,15.20
2018-06-08T07:32:00.577Z,11.68
2018-06-08T07:34:29.106Z,11.35
2018-06-08T07:36:57.589Z,14.53
2018-06-08T07:39:26.082Z,10.28
2018-06-08T07:41:54.669Z,11.35
2018-06-08T07:44:23.139Z,12.05
2018-06-08T07:46:51.669Z,15.60
2018-06-08T07:49:20.248Z,18.12
2018-06-08T07:51:48.729Z,12.68
2018-06-08T07:54:17.229Z,11.75
2018-06-08T07:56:45.784Z,8.93
2018-06-08T07:59:14.320Z,10.35
2018-06-08T08:01:42.807Z,12.70
2018-06-08T08:04:11.293Z,8.93
2018-06-08T08:06:39.824Z,12.82
2018-06-08T08:09:09.862Z,8.70
2018-06-08T08:11:38.535Z,10.75
2018-06-08T08:14:07.070Z,11.28
2018-06-08T08:16:35.556Z,12.45
2018-06-08T08:19:04.032Z,13.72
2018-06-08T08:21:32.508Z,9.70
2018-06-08T08:24:01.036Z,8.48
2018-06-08T08:26:29.585Z,11.28
2018-06-08T08:28:58.179Z,10.48
2018-06-08T08:31:26.664Z,12.33
2018-06-08T08:33:55.226Z,10.63
2018-06-08T08:36:23.795Z,10.53
2018-06-08T08:38:52.298Z,8.58
2018-06-08T08:41:20.845Z,11.22
2018-06-08T08:43:49.377Z,12.73
2018-06-08T08:46:17.909Z,13.13
2018-06-08T08:48:46.438Z,10.38
2018-06-08T08:51:14.970Z,10.58
2018-06-08T08:53:43.491Z,8.18
2018-06-08T08:56:11.942Z,11.45
2018-06-08T08:58:40.464Z,11.20
2018-06-08T09:01:08.988Z,13.48
2018-06-08T09:03:37.527Z,13.10
2018-06-08T09:06:06.220Z,8.33
2018-06-08T09:08:34.699Z,8.20
2018-06-08T09:11:03.329Z,17.32
2018-06-08T09:13:31.897Z,7.70
2018-06-08T09:16:00.453Z,14.00
2018-06-08T09:18:28.959Z,13.15
2018-06-08T09:20:57.624Z,8.70
2018-06-08T09:23:26.144Z,7.65
2018-06-08T09:25:54.950Z,8.28
2018-06-08T09:28:23.812Z,9.85
2018-06-08T09:30:52.377Z,10.08
2018-06-08T09:33:20.964Z,8.18
2018-06-08T09:35:49.616Z,8.30
2018-06-08T09:38:18.177Z,11.45
2018-06-08T09:40:46.838Z,9.10
2018-06-08T09:43:15.397Z,7.60
2018-06-08T09:45:44.024Z,9.43
2018-06-08T09:48:12.639Z,8.15
2018-06-08T09:50:41.192Z,8.43
2018-06-08T09:53:09.777Z,8.03
2018-06-08T09:55:38.357Z,7.65
2018-06-08T09:58:06.945Z,9.10
2018-06-08T10:00:41.429Z,9.65
2018-06-08T10:03:10.532Z,6.20
2018-06-08T10:05:39.211Z,9.65
2018-06-08T10:08:07.788Z,7.22
2018-06-08T10:10:36.377Z,7.12
2018-06-08T10:13:05.007Z,11.60
2018-06-08T10:15:33.620Z,7.85
2018-06-08T10:18:02.215Z,11.05
2018-06-08T10:20:30.752Z,9.40
2018-06-08T10:22:59.295Z,9.53
2018-06-08T10:25:27.918Z,8.40
2018-06-08T10:27:56.578Z,9.73
2018-06-08T10:30:25.074Z,8.80
2018-06-08T10:32:53.825Z,8.78
2018-06-08T10:35:22.620Z,10.65
2018-06-08T10:37:51.317Z,10.28
2018-06-08T10:40:20.206Z,7.25
2018-06-08T10:42:49.069Z,9.80
2018-06-08T10:45:17.807Z,8.43
2018-06-08T10:47:46.553Z,10.20
2018-06-08T10:50:15.579Z,10.43
2018-06-08T10:52:44.288Z,11.38
2018-06-08T10:55:12.866Z,8.80
2018-06-08T10:57:41.803Z,7.35
2018-06-08T11:00:10.519Z,7.08
2018-06-08T11:02:39.105Z,10.03
2018-06-08T11:05:07.871Z,13.13
2018-06-08T11:07:36.813Z,10.53
2018-06-08T11:10:05.424Z,9.48
2018-06-08T11:12:34.759Z,11.65
2018-06-08T11:15:03.473Z,8.60
2018-06-08T11:17:31.951Z,8.10
2018-06-08T11:20:05.494Z,11.08
2018-06-08T11:25:24.125Z,9.65
2018-06-08T11:27:52.757Z,6.70
2018-06-08T11:30:21.301Z,12.95
2018-06-08T11:32:50.004Z,7.10
2018-06-08T11:35:18.496Z,12.88
2018-06-08T11:37:47.107Z,8.40
2018-06-08T11:40:15.585Z,9.13
2018-06-08T11:42:44.150Z,10.30
2018-06-08T11:45:12.719Z,10.88
2018-06-08T11:47:41.362Z,8.03
2018-06-08T11:50:09.983Z,7.33
2018-06-08T11:52:39.130Z,9.93
2018-06-08T11:55:07.880Z,10.95
2018-06-08T11:57:36.409Z,10.50
2018-06-08T12:00:05.390Z,9.05
2018-06-08T12:02:34.242Z,17.25
2018-06-08T12:05:02.755Z,9.38
2018-06-08T12:07:31.435Z,7.47
2018-06-08T12:09:59.958Z,7.62
2018-06-08T12:12:29.096Z,10.00
2018-06-08T12:14:57.918Z,9.98
2018-06-08T12:17:26.712Z,10.58
2018-06-08T12:19:55.373Z,16.67
2018-06-08T12:22:23.855Z,12.35
2018-06-08T12:24:52.600Z,10.23
2018-06-08T12:27:21.074Z,8.80
2018-06-08T12:29:49.606Z,8.88
2018-06-08T12:32:18.136Z,7.95
2018-06-08T12:34:46.665Z,10.65
2018-06-08T12:37:15.186Z,10.65
2018-06-08T12:39:43.693Z,12.30
2018-06-08T12:42:12.424Z,8.93
2018-06-08T12:44:41.059Z,7.22
2018-06-08T12:47:09.612Z,10.20
2018-06-08T12:49:38.227Z,11.88
2018-06-08T12:52:06.810Z,8.33
2018-06-08T12:54:35.351Z,7.78
2018-06-08T12:57:04.158Z,10.75
2018-06-08T12:59:32.846Z,8.38
2018-06-08T13:02:01.538Z,9.33
2018-06-08T13:04:30.294Z,8.23
2018-06-08T13:06:58.837Z,8.50
2018-06-08T13:09:27.609Z,11.08
2018-06-08T13:11:56.111Z,7.42
2018-06-08T13:14:24.698Z,9.78
2018-06-08T13:16:53.314Z,11.70
2018-06-08T13:19:21.845Z,12.30
2018-06-08T13:21:50.463Z,8.80
2018-06-08T13:24:18.984Z,13.38
2018-06-08T13:26:47.612Z,10.20
2018-06-08T13:29:16.200Z,8.43
2018-06-08T13:31:44.852Z,7.75
2018-06-08T13:34:13.702Z,8.70
2018-06-08T13:36:42.636Z,11.03
2018-06-08T13:39:12.223Z,8.23
2018-06-08T13:41:40.703Z,14.00
2018-06-08T13:44:09.355Z,9.65
2018-06-08T13:46:48.167Z,8.48
2018-06-08T13:49:16.691Z,13.08
2018-06-08T13:51:45.504Z,10.55
2018-06-08T13:54:14.038Z,11.78
2018-06-08T13:56:42.562Z,7.95
2018-06-08T13:59:11.473Z,7.78
2018-06-08T14:01:40.119Z,11.90
2018-06-08T14:04:08.654Z,14.03
2018-06-08T14:06:37.328Z,15.78
2018-06-08T14:09:06.839Z,10.50
2018-06-08T14:11:35.958Z,7.92
2018-06-08T14:14:04.486Z,8.55
2018-06-08T14:16:33.104Z,8.48
2018-06-08T14:19:02.293Z,12.63
2018-06-08T14:21:30.826Z,15.40
2018-06-08T14:23:59.736Z,10.45
2018-06-08T14:26:28.203Z,8.53
2018-06-08T14:28:56.801Z,9.58
2018-06-08T14:31:25.337Z,8.00
2018-06-08T14:33:53.836Z,12.93
2018-06-08T14:36:22.255Z,10.60
2018-06-08T14:38:51.273Z,9.43
2018-06-08T14:41:19.902Z,10.53
2018-06-08T14:43:48.405Z,9.80
2018-06-08T14:46:16.923Z,7.35
2018-06-08T14:48:45.416Z,9.53
2018-06-08T14:51:13.966Z,10.28
2018-06-08T14:53:42.489Z,8.25
2018-06-08T14:56:11.105Z,8.08
2018-06-08T14:58:39.624Z,10.25
2018-06-08T15:01:08.354Z,8.13
2018-06-08T15:03:37.366Z,8.93
2018-06-08T15:06:05.970Z,10.63
2018-06-08T15:08:34.559Z,9.93
2018-06-08T15:11:03.080Z,8.30
2018-06-08T15:13:32.311Z,8.35
2018-06-08T15:16:01.212Z,7.70
2018-06-08T15:18:30.070Z,8.80
2018-06-08T15:20:58.910Z,9.45
2018-06-08T15:23:27.699Z,10.08
2018-06-08T15:25:56.288Z,13.32
2018-06-08T15:28:24.830Z,8.15
2018-06-08T15:30:54.017Z,9.25
2018-06-08T15:33:22.763Z,10.35
2018-06-08T15:35:51.299Z,9.25
2018-06-08T15:38:19.913Z,9.40
2018-06-08T15:40:48.482Z,14.60
2018-06-08T15:43:17.124Z,11.80
2018-06-08T15:45:45.920Z,7.60
2018-06-08T15:48:14.530Z,7.70
2018-06-08T15:50:43.192Z,14.03
2018-06-08T15:53:11.701Z,15.28
2018-06-08T15:55:40.283Z,11.45
2018-06-08T15:58:08.782Z,8.43
2018-06-08T16:00:37.302Z,10.48
2018-06-08T16:03:06.255Z,10.72
2018-06-08T16:05:34.949Z,10.38
2018-06-08T16:08:03.449Z,12.45
2018-06-08T16:10:32.269Z,10.50
2018-06-08T16:13:00.785Z,10.08
2018-06-08T16:15:29.547Z,11.45
2018-06-08T16:17:58.085Z,9.93
2018-06-08T16:20:26.820Z,10.78
2018-06-08T16:22:55.386Z,12.65
2018-06-08T16:25:24.071Z,10.72
2018-06-08T16:27:52.651Z,10.18
2018-06-08T16:30:21.205Z,9.80
2018-06-08T16:32:49.990Z,9.00
2018-06-08T16:35:19.068Z,11.93
2018-06-08T16:37:47.653Z,11.53
2018-06-08T16:40:16.258Z,11.35
2018-06-08T16:42:44.871Z,10.08
2018-06-08T16:45:13.442Z,9.48
2018-06-08T16:47:42.164Z,9.75
2018-06-08T16:50:10.819Z,11.63
2018-06-08T16:52:39.378Z,9.23
2018-06-08T16:55:08.538Z,11.40
2018-06-08T16:57:37.193Z,9.30
2018-06-08T17:00:06.385Z,10.43
2018-06-08T17:02:34.949Z,9.03
2018-06-08T17:05:03.655Z,11.08
2018-06-08T17:07:32.237Z,9.03
2018-06-08T17:10:00.836Z,9.35
2018-06-08T17:12:29.650Z,10.00
2018-06-08T17:14:58.253Z,8.00
2018-06-08T17:17:27.386Z,16.40
2018-06-08T17:19:56.225Z,11.50
2018-06-08T17:22:24.735Z,7.70
2018-06-08T17:24:53.366Z,8.05
2018-06-08T17:27:23.141Z,12.07
2018-06-08T17:29:51.939Z,14.03
2018-06-08T17:32:20.487Z,11.53
2018-06-08T17:34:49.068Z,10.00
2018-06-08T17:37:17.622Z,9.25
2018-06-08T17:39:46.231Z,9.00
2018-06-08T17:42:14.770Z,13.40
2018-06-08T17:44:43.309Z,12.00
2018-06-08T17:47:11.877Z,10.48
2018-06-08T17:49:43.781Z,11.35
2018-06-08T17:52:12.300Z,10.32
2018-06-08T17:54:40.832Z,11.60
2018-06-08T17:57:09.562Z,11.15
2018-06-08T17:59:38.131Z,9.98
2018-06-08T18:02:07.169Z,12.78
2018-06-08T18:04:35.822Z,10.88
2018-06-08T18:07:04.525Z,13.62
2018-06-08T18:09:33.678Z,13.53
2018-06-08T18:12:02.499Z,13.72
2018-06-08T18:14:31.062Z,9.78
2018-06-08T18:16:59.671Z,11.73
2018-06-08T18:19:28.657Z,15.78
2018-06-08T18:21:58.236Z,9.88
2018-06-08T18:24:28.834Z,13.10
2018-06-08T18:26:57.410Z,9.58
2018-06-08T18:29:25.922Z,16.00
2018-06-08T18:31:54.463Z,14.25
2018-06-08T18:34:23.189Z,13.43
2018-06-08T18:36:51.989Z,11.40
2018-06-08T18:39:20.908Z,16.67
2018-06-08T18:41:49.551Z,12.50
2018-06-08T18:44:18.289Z,12.80
2018-06-08T18:46:47.140Z,16.85
2018-06-08T18:49:16.689Z,16.87
2018-06-08T18:51:45.510Z,15.25
2018-06-08T18:54:14.131Z,11.55
2018-06-08T18:56:42.618Z,14.55
2018-06-08T18:59:11.247Z,12.68
2018-06-08T19:01:40.754Z,13.60
2018-06-08T19:04:09.499Z,14.00
2018-06-08T19:06:38.008Z,11.75
2018-06-08T19:09:08.910Z,11.65
2018-06-08T19:11:38.037Z,12.10
2018-06-08T19:14:07.208Z,14.13
2018-06-08T19:16:35.942Z,24.75
2018-06-08T19:19:05.321Z,15.40
2018-06-08T19:21:34.385Z,12.45
2018-06-08T19:24:03.077Z,14.80
2018-06-08T19:26:35.013Z,22.15
2018-06-08T19:29:06.583Z,11.55
2018-06-08T19:31:35.234Z,15.08
2018-06-08T19:34:03.980Z,11.40
2018-06-08T19:36:32.562Z,13.18
2018-06-08T19:39:01.408Z,13.27
2018-06-08T19:41:31.247Z,16.50
2018-06-08T19:44:00.130Z,17.73
2018-06-08T19:46:29.144Z,13.57
2018-06-08T19:48:58.756Z,16.20
2018-06-08T19:51:28.761Z,13.63
2018-06-08T19:53:57.396Z,15.70
2018-06-08T19:56:26.135Z,17.70
2018-06-08T19:58:55.043Z,10.77
2018-06-08T20:01:24.167Z,14.87
2018-06-08T20:03:53.885Z,15.80
2018-06-08T20:06:23.027Z,18.43
2018-06-08T20:08:51.694Z,17.93
2018-06-08T20:11:20.469Z,16.67
2018-06-08T20:13:49.739Z,17.47
2018-06-08T20:16:18.406Z,15.00
2018-06-08T20:18:46.934Z,14.43
2018-06-08T20:21:15.720Z,13.93
2018-06-08T20:23:44.291Z,12.73
2018-06-08T20:26:12.891Z,13.53
2018-06-08T20:28:41.458Z,13.87
2018-06-08T20:31:10.046Z,15.27
2018-06-08T20:33:38.627Z,12.83
2018-06-08T20:36:08.274Z,14.33
2018-06-08T20:38:37.267Z,14.40
2018-06-08T20:41:06.116Z,18.43
2018-06-08T20:43:34.701Z,15.30
2018-06-08T20:46:03.465Z,19.23
2018-06-08T20:48:32.185Z,15.67
2018-06-08T20:51:00.769Z,13.40
2018-06-08T20:53:29.399Z,14.00
2018-06-08T20:55:58.198Z,18.83
2018-06-08T20:58:28.542Z,14.93
2018-06-08T21:00:57.633Z,23.40
2018-06-08T21:03:26.176Z,21.77
2018-06-08T21:05:54.768Z,17.40
2018-06-08T21:08:23.382Z,18.43
2018-06-08T21:10:52.081Z,16.83
2018-06-08T21:13:21.135Z,23.87
2018-06-08T21:15:49.822Z,22.27
2018-06-08T21:18:18.726Z,22.70
2018-06-08T21:20:47.267Z,17.83
2018-06-08T21:23:15.977Z,21.90
2018-06-08T21:25:45.053Z,20.03
2018-06-08T21:28:13.771Z,18.20
2018-06-08T21:30:43.070Z,22.87
2018-06-08T21:33:11.659Z,22.90
2018-06-08T21:35:40.451Z,22.73
2018-06-08T21:38:09.787Z,19.57
2018-06-08T21:40:38.675Z,20.03
2018-06-08T21:43:07.452Z,22.23
2018-06-08T21:45:36.037Z,23.87
2018-06-08T21:48:04.594Z,18.60
2018-06-08T21:50:33.256Z,18.90
2018-06-08T21:53:01.834Z,19.63
2018-06-08T21:55:30.508Z,17.40
2018-06-08T21:57:59.060Z,19.13
2018-06-08T22:00:27.629Z,18.77
2018-06-08T22:02:56.207Z,19.83
2018-06-08T22:05:24.853Z,24.87
2018-06-08T22:07:53.464Z,20.70
2018-06-08T22:10:22.022Z,22.60
2018-06-08T22:12:50.528Z,19.13
2018-06-08T22:15:19.091Z,19.17
2018-06-08T22:17:47.633Z,20.67
2018-06-08T22:20:16.239Z,23.70
2018-06-08T22:22:44.828Z,26.03
2018-06-08T22:25:13.381Z,21.00
2018-06-08T22:27:42.089Z,20.53
2018-06-08T22:30:10.648Z,19.37
2018-06-08T22:32:39.232Z,23.33
2018-06-08T22:35:07.798Z,20.67
2018-06-08T22:37:36.373Z,24.30
2018-06-08T22:40:04.920Z,19.47
2018-06-08T22:42:33.605Z,20.93
2018-06-08T22:45:02.096Z,21.00
2018-06-08T22:47:30.739Z,20.00
2018-06-08T22:49:59.302Z,24.07
2018-06-08T22:52:27.916Z,24.63
2018-06-08T22:54:56.400Z,26.23
2018-06-08T22:57:25.061Z,22.70
2018-06-08T22:59:53.667Z,21.47
2018-06-08T23:02:22.300Z,24.63
2018-06-08T23:04:50.797Z,22.60
2018-06-08T23:07:19.312Z,21.63
2018-06-08T23:09:47.949Z,20.50
2018-06-08T23:12:16.530Z,22.43
2018-06-08T23:14:45.067Z,20.20
2018-06-08T23:17:13.699Z,29.03
2018-06-08T23:19:42.312Z,21.17
2018-06-08T23:22:10.897Z,24.43
2018-06-08T23:24:39.521Z,24.50
2018-06-08T23:27:08.124Z,23.70
2018-06-08T23:29:36.774Z,19.97
2018-06-08T23:32:05.515Z,20.50
2018-06-08T23:34:34.152Z,25.20
2018-06-08T23:37:02.702Z,26.20
2018-06-08T23:39:31.374Z,19.20
2018-06-08T23:41:59.982Z,26.27
2018-06-08T23:44:28.548Z,25.57
2018-06-08T23:46:57.079Z,26.50
2018-06-08T23:49:25.661Z,26.67
2018-06-08T23:51:54.132Z,26.70
2018-06-08T23:54:22.814Z,24.67
2018-06-08T23:56:51.523Z,22.70
2018-06-08T23:59:20.210Z,25.17
